createdAt,value
2019-05-03T00:03:39.351Z,88
2019-05-03T00:09:12.770Z,89
2019-05-03T00:14:46.071Z,90
2019-05-03T00:20:19.498Z,90
2019-05-03T00:25:52.670Z,90
2019-05-03T00:31:25.979Z,89
2019-05-03T00:36:59.221Z,89
2019-05-03T00:42:32.385Z,88
2019-05-03T00:48:05.584Z,89
2019-05-03T00:53:38.576Z,90
2019-05-03T00:59:12.639Z,89
2019-05-03T01:04:44.932Z,90
2019-05-03T01:10:18.096Z,90
2019-05-03T01:15:51.942Z,89
2019-05-03T01:21:24.363Z,90
2019-05-03T01:26:57.568Z,90
2019-05-03T01:32:32.680Z,89
2019-05-03T01:38:03.961Z,89
2019-05-03T01:43:37.252Z,90
2019-05-03T01:49:12.142Z,88
2019-05-03T01:54:43.565Z,88
2019-05-03T02:00:16.915Z,88
2019-05-03T02:05:49.652Z,90
2019-05-03T02:11:22.772Z,90
2019-05-03T02:16:55.868Z,91
2019-05-03T02:22:29.076Z,91
2019-05-03T02:28:02.290Z,91
2019-05-03T02:33:35.433Z,91
2019-05-03T02:39:08.294Z,91
2019-05-03T02:44:41.172Z,90
2019-05-03T02:50:16.627Z,90
2019-05-03T02:55:47.234Z,90
2019-05-03T03:01:19.960Z,90
2019-05-03T03:06:55.435Z,91
2019-05-03T03:12:25.719Z,91
2019-05-03T03:17:57.246Z,90
2019-05-03T03:23:29.998Z,90
2019-05-03T03:29:05.282Z,90
2019-05-03T03:34:38.501Z,90
2019-05-03T03:40:07.270Z,90
2019-05-03T03:45:39.635Z,90
2019-05-03T03:51:12.021Z,89
2019-05-03T03:56:55.761Z,90
2019-05-03T04:02:17.661Z,90
2019-05-03T04:07:50.260Z,90
2019-05-03T04:13:25.298Z,90
2019-05-03T04:18:55.273Z,90
2019-05-03T04:24:28.027Z,90
2019-05-03T04:30:00.811Z,90
2019-05-03T04:35:36.257Z,91
2019-05-03T04:41:06.227Z,91
2019-05-03T04:46:38.418Z,91
2019-05-03T04:52:10.870Z,91
2019-05-03T04:57:46.652Z,91
2019-05-03T05:03:15.817Z,91
2019-05-03T05:08:48.618Z,91
2019-05-03T05:14:21.650Z,90
2019-05-03T05:19:54.877Z,91
2019-05-03T05:25:27.287Z,91
2019-05-03T05:31:00.217Z,91
2019-05-03T05:36:34.710Z,91
2019-05-03T05:42:05.327Z,91
2019-05-03T05:47:37.793Z,91
2019-05-03T05:53:10.223Z,91
2019-05-03T05:58:44.884Z,91
2019-05-03T06:04:15.779Z,91
2019-05-03T06:09:48.839Z,92
2019-05-03T06:15:21.260Z,91
2019-05-03T06:20:54.344Z,91
2019-05-03T06:26:26.367Z,91
2019-05-03T06:31:58.938Z,91
2019-05-03T06:37:31.544Z,89
2019-05-03T06:43:08.310Z,88
2019-05-03T06:48:31.946Z,90
2019-05-03T06:54:05.014Z,89
2019-05-03T06:59:37.503Z,89
2019-05-03T07:05:10.945Z,89
2019-05-03T07:10:44.758Z,88
2019-05-03T07:16:18.396Z,89
2019-05-03T07:21:52.067Z,88
2019-05-03T07:27:25.710Z,88
2019-05-03T07:32:59.431Z,89
2019-05-03T07:38:34.821Z,86
2019-05-03T07:44:06.749Z,86
2019-05-03T07:49:40.437Z,87
2019-05-03T07:55:14.926Z,87
2019-05-03T08:00:48.038Z,87
2019-05-03T08:06:21.732Z,87
2019-05-03T08:11:55.436Z,88
2019-05-03T08:17:29.247Z,85
2019-05-03T08:23:05.073Z,84
2019-05-03T08:28:36.618Z,84
2019-05-03T08:34:10.366Z,83
2019-05-03T08:39:44.711Z,82
2019-05-03T08:45:16.563Z,79
2019-05-03T08:50:49.669Z,81
2019-05-03T08:56:24.531Z,81
2019-05-03T09:01:56.640Z,77
2019-05-03T09:07:30.062Z,76
2019-05-03T09:13:06.004Z,75
2019-05-03T09:18:36.905Z,78
2019-05-03T09:24:10.559Z,75
2019-05-03T09:29:46.115Z,77
2019-05-03T09:35:29.531Z,76
2019-05-03T09:40:54.433Z,74
2019-05-03T09:46:26.378Z,72
2019-05-03T09:52:00.629Z,76
2019-05-03T09:57:34.848Z,75
2019-05-03T10:03:09.174Z,75
2019-05-03T10:08:45.340Z,70
2019-05-03T10:14:18.372Z,72
2019-05-03T10:19:54.703Z,68
2019-05-03T10:25:27.775Z,67
2019-05-03T10:31:07.009Z,74
2019-05-03T10:36:37.210Z,71
2019-05-03T10:42:11.623Z,71
2019-05-03T10:47:45.750Z,69
2019-05-03T10:53:19.829Z,66
2019-05-03T10:58:54.914Z,72
2019-05-03T11:04:28.780Z,72
2019-05-03T11:10:05.315Z,72
2019-05-03T11:15:37.874Z,72
2019-05-03T11:21:14.121Z,69
2019-05-03T11:26:46.873Z,68
2019-05-03T11:32:21.448Z,69
2019-05-03T11:37:55.951Z,67
2019-05-03T11:43:30.606Z,68
2019-05-03T11:49:05.664Z,67
2019-05-03T11:54:40.520Z,66
2019-05-03T12:00:15.801Z,68
2019-05-03T12:05:50.653Z,69
2019-05-03T12:11:25.400Z,66
2019-05-03T12:17:16.454Z,68
2019-05-03T12:22:35.871Z,68
2019-05-03T12:28:08.733Z,67
2019-05-03T12:33:45.724Z,68
2019-05-03T12:39:26.160Z,66
2019-05-03T12:44:52.007Z,68
2019-05-03T12:50:26.440Z,69
2019-05-03T12:56:00.756Z,71
2019-05-03T13:01:41.489Z,72
2019-05-03T13:07:09.133Z,71
2019-05-03T13:12:50.474Z,69
2019-05-03T13:18:17.317Z,71
2019-05-03T13:23:51.248Z,68
2019-05-03T13:29:25.580Z,67
2019-05-03T13:34:58.649Z,66
2019-05-03T13:40:32.638Z,67
2019-05-03T13:46:06.711Z,66
2019-05-03T13:51:40.894Z,66
2019-05-03T13:57:15.498Z,66
2019-05-03T14:02:49.172Z,72
2019-05-03T14:08:25.322Z,73
2019-05-03T14:13:57.453Z,70
2019-05-03T14:19:31.613Z,72
2019-05-03T14:25:05.619Z,71
2019-05-03T14:30:39.676Z,68
2019-05-03T14:36:15.801Z,71
2019-05-03T14:41:47.775Z,68
2019-05-03T14:47:22.102Z,67
2019-05-03T14:52:56.993Z,67
2019-05-03T14:58:30.685Z,68
2019-05-03T15:04:05.819Z,67
2019-05-03T15:09:39.166Z,63
2019-05-03T15:15:14.619Z,60
2019-05-03T15:20:48.210Z,62
2019-05-03T15:26:24.683Z,61
2019-05-03T15:31:56.951Z,58
2019-05-03T15:37:31.526Z,59
2019-05-03T15:43:05.963Z,62
2019-05-03T15:48:40.225Z,61
2019-05-03T15:54:15.295Z,60
2019-05-03T15:59:48.892Z,61
2019-05-03T16:05:24.921Z,58
2019-05-03T16:10:56.419Z,61
2019-05-03T16:16:29.908Z,59
2019-05-03T16:22:04.851Z,63
2019-05-03T16:27:37.886Z,65
2019-05-03T16:33:23.758Z,59
2019-05-03T16:38:45.180Z,58
2019-05-03T16:44:18.600Z,56
2019-05-03T16:49:52.018Z,55
2019-05-03T16:55:25.714Z,58
2019-05-03T17:00:58.797Z,62
2019-05-03T17:06:34.695Z,59
2019-05-03T17:12:06.521Z,59
2019-05-03T17:17:40.025Z,62
2019-05-03T17:23:15.412Z,64
2019-05-03T17:28:48.102Z,65
2019-05-03T17:34:21.924Z,66
2019-05-03T17:39:55.066Z,66
2019-05-03T17:45:28.119Z,69
2019-05-03T17:51:01.258Z,75
2019-05-03T17:56:35.056Z,70
2019-05-03T18:02:07.128Z,71
2019-05-03T18:07:40.046Z,71
2019-05-03T18:13:14.328Z,70
2019-05-03T18:24:19.955Z,67
2019-05-03T18:29:52.858Z,70
2019-05-03T18:35:25.816Z,69
2019-05-03T18:40:58.836Z,74
2019-05-03T18:46:31.452Z,74
2019-05-03T18:52:04.431Z,73
2019-05-03T18:57:37.009Z,73
2019-05-03T19:03:09.650Z,75
2019-05-03T19:08:44.676Z,70
2019-05-03T19:14:16.527Z,71
2019-05-03T19:19:50.056Z,69
2019-05-03T19:25:25.323Z,72
2019-05-03T19:30:57.328Z,74
2019-05-03T19:36:30.731Z,75
2019-05-03T19:42:04.186Z,74
2019-05-03T19:47:37.656Z,74
2019-05-03T19:53:11.031Z,71
2019-05-03T19:58:44.143Z,72
2019-05-03T20:04:17.194Z,72
2019-05-03T20:09:50.552Z,75
2019-05-03T20:15:23.888Z,73
2019-05-03T20:20:57.256Z,75
2019-05-03T20:26:29.952Z,70
2019-05-03T20:32:02.510Z,70
2019-05-03T20:37:35.310Z,70
2019-05-03T20:43:07.836Z,71
2019-05-03T20:48:40.344Z,70
2019-05-03T20:54:12.894Z,71
2019-05-03T20:59:49.430Z,72
2019-05-03T21:05:27.632Z,73
2019-05-03T21:10:50.811Z,72
2019-05-03T21:16:23.356Z,72
2019-05-03T21:21:55.909Z,75
2019-05-03T21:27:29.003Z,73
2019-05-03T21:33:01.553Z,75
2019-05-03T21:38:35.399Z,76
2019-05-03T21:44:06.608Z,78
2019-05-03T21:49:39.012Z,77
2019-05-03T21:55:11.717Z,76
2019-05-03T22:00:45.450Z,74
2019-05-03T22:06:18.401Z,74
2019-05-03T22:11:52.208Z,74
2019-05-03T22:17:25.351Z,74
2019-05-03T22:22:58.436Z,75
2019-05-03T22:28:31.726Z,75
2019-05-03T22:34:05.051Z,79
2019-05-03T22:39:38.241Z,75
2019-05-03T22:45:11.510Z,79
2019-05-03T22:50:44.935Z,82
2019-05-03T22:56:17.653Z,80
2019-05-03T23:01:50.617Z,81
2019-05-03T23:07:24.947Z,82
2019-05-03T23:12:57.149Z,83
2019-05-03T23:18:30.244Z,84
2019-05-03T23:24:02.774Z,82
2019-05-03T23:29:36.024Z,81
2019-05-03T23:35:09.354Z,83
2019-05-03T23:40:44.651Z,83
2019-05-03T23:46:15.851Z,85
2019-05-03T23:51:49.157Z,87
2019-05-03T23:57:22.355Z,87
